الصفحة الرئيسية
METAR-TAF:

METAR-TAF

مطار :

بلودير سيتي, نيفادا, الولايات المتحدة

دائرة عرض: 35-56-50N, خط طول: 114-51-37W, ارتفاع: 671 متر

مراقبة الطقس الحالي

تاريخ ووقت الإصدار 14 دقيقة قبل الساعة 05:55UTC
رياح هادئة
درجة الحرارة 7°درجة مئوية
الرطوبة 29%
ضغط 1028 hPa
الرؤية: 16.1 كم
سماء صافية

METAR: KBVU 140555Z AUTO 00000KT 10SM CLR 07/M10 A3036 RMK AO2

زمن: 22:09 (06:09 UTC)


TAF: مفقودة

أرصاد الطقس والتوقعات من أكثر من 4000 مطار (تقارير الطقس للمطار METAR والتنبؤ بالطقس بالمطارTAF).

المحطات المتاحة هي النقط الصفراء والحمراء على الخريطة.

حرك المؤشر فوق النقطة لمعرفة اسم المحطة.

ثم انقر لمعرفة أرصاد وتوقعات الطقس.

لتغيير الخارطة: اضغط على الأزرار الخضراء مع رمز الصليب الأسود للتكبير. على الزر الأخضر مع شرطة للتصغير، أو على الأسهم الخضراء للخرائط المجاورة.


METAR-TAF: